Archival Weather

Yakutsk

Yakutsk, Russia (UEEE)

Report from: Monday, February 6, 2023 1:00 PM JST
Current time: Wednesday, July 17, 2024 1:14 AM JST

Current weather – Weather history – Daily summaries
Weather forecast

Present weatherMist
Temperature-39.0°C (-38.2°F)
Wind chill-47.9°C (-54.2°F)
Dew point-44.0°C (-47.2°F)
Winds 3.9 kts (2 m/s, 4.5 mph) South-Southeast (160°)
Visibility2 mi. (3.2 km)
Altimeter30.24 in.Hg (1024 mB)
Precip. events QF 3:39 PM
Relative humidity59 %
Density altitude-7,624 ft. (-2,324 m)
Remarks No significant changes expected in the next two hours
Flight conditions Instrument Meteorological Conditions
Raw dataUEEE 060400Z 16002MPS 3200 BR NSC M39/M44 Q1024 R23L/490150 NOSIG RMK QFE759
An error has occurred. This application may no longer respond until reloaded. Reload 🗙